sensor_id;sensor_type;location;lat;lon;timestamp;temperature;humidity
21238;DHT22;10777;50.828;3.264;2022-07-23T00:00:53;19.10;99.90
21238;DHT22;10777;50.828;3.264;2022-07-23T00:03:19;18.80;99.90
21238;DHT22;10777;50.828;3.264;2022-07-23T00:05:44;19.00;99.90
21238;DHT22;10777;50.828;3.264;2022-07-23T00:08:10;19.20;99.90
21238;DHT22;10777;50.828;3.264;2022-07-23T00:10:36;18.80;99.90
21238;DHT22;10777;50.828;3.264;2022-07-23T00:13:02;18.50;99.90
21238;DHT22;10777;50.828;3.264;2022-07-23T00:15:27;18.60;99.90
21238;DHT22;10777;50.828;3.264;2022-07-23T00:17:53;18.40;99.90
21238;DHT22;10777;50.828;3.264;2022-07-23T00:20:19;18.50;99.90
21238;DHT22;10777;50.828;3.264;2022-07-23T00:22:50;18.70;99.90
21238;DHT22;10777;50.828;3.264;2022-07-23T00:25:16;18.50;99.90
21238;DHT22;10777;50.828;3.264;2022-07-23T00:27:42;18.50;99.90
21238;DHT22;10777;50.828;3.264;2022-07-23T00:30:08;18.60;99.90
21238;DHT22;10777;50.828;3.264;2022-07-23T00:32:52;18.70;99.90
21238;DHT22;10777;50.828;3.264;2022-07-23T00:35:20;18.90;99.90
21238;DHT22;10777;50.828;3.264;2022-07-23T00:37:46;18.60;99.90
21238;DHT22;10777;50.828;3.264;2022-07-23T00:40:13;18.30;99.90
21238;DHT22;10777;50.828;3.264;2022-07-23T00:42:39;18.10;99.90
21238;DHT22;10777;50.828;3.264;2022-07-23T00:45:06;18.40;99.90
21238;DHT22;10777;50.828;3.264;2022-07-23T00:47:32;18.30;99.90
21238;DHT22;10777;50.828;3.264;2022-07-23T00:49:58;18.30;99.90
21238;DHT22;10777;50.828;3.264;2022-07-23T00:52:25;18.40;99.90
21238;DHT22;10777;50.828;3.264;2022-07-23T00:54:51;18.30;99.90
21238;DHT22;10777;50.828;3.264;2022-07-23T00:57:17;18.40;99.90
21238;DHT22;10777;50.828;3.264;2022-07-23T00:59:43;18.60;99.90
21238;DHT22;10777;50.828;3.264;2022-07-23T01:02:09;18.80;99.90
21238;DHT22;10777;50.828;3.264;2022-07-23T01:04:35;18.90;99.90
21238;DHT22;10777;50.828;3.264;2022-07-23T01:07:01;18.90;99.90
21238;DHT22;10777;50.828;3.264;2022-07-23T01:09:27;18.90;99.90
21238;DHT22;10777;50.828;3.264;2022-07-23T01:11:54;19.00;99.90
21238;DHT22;10777;50.828;3.264;2022-07-23T01:14:23;19.00;99.90
21238;DHT22;10777;50.828;3.264;2022-07-23T01:16:49;18.90;99.90
21238;DHT22;10777;50.828;3.264;2022-07-23T01:19:16;19.00;99.90
21238;DHT22;10777;50.828;3.264;2022-07-23T01:21:44;18.90;99.90
21238;DHT22;10777;50.828;3.264;2022-07-23T01:24:10;19.00;99.90
21238;DHT22;10777;50.828;3.264;2022-07-23T01:26:38;19.00;99.90
21238;DHT22;10777;50.828;3.264;2022-07-23T01:29:04;18.90;99.90
21238;DHT22;10777;50.828;3.264;2022-07-23T01:31:30;18.90;99.90
21238;DHT22;10777;50.828;3.264;2022-07-23T01:33:57;19.00;99.90
21238;DHT22;10777;50.828;3.264;2022-07-23T01:36:23;18.90;99.90
21238;DHT22;10777;50.828;3.264;2022-07-23T01:38:50;18.90;99.90
21238;DHT22;10777;50.828;3.264;2022-07-23T01:41:16;18.90;99.90
21238;DHT22;10777;50.828;3.264;2022-07-23T01:43:41;18.70;99.90
21238;DHT22;10777;50.828;3.264;2022-07-23T01:46:07;18.70;99.90
21238;DHT22;10777;50.828;3.264;2022-07-23T01:48:33;18.90;99.90
21238;DHT22;10777;50.828;3.264;2022-07-23T01:50:59;18.90;99.90
21238;DHT22;10777;50.828;3.264;2022-07-23T01:53:24;18.40;99.90
21238;DHT22;10777;50.828;3.264;2022-07-23T01:55:50;18.60;99.90
21238;DHT22;10777;50.828;3.264;2022-07-23T01:58:16;18.50;99.90
21238;DHT22;10777;50.828;3.264;2022-07-23T02:00:41;18.20;99.90
21238;DHT22;10777;50.828;3.264;2022-07-23T02:03:07;18.20;99.90
21238;DHT22;10777;50.828;3.264;2022-07-23T02:05:33;18.20;99.90
21238;DHT22;10777;50.828;3.264;2022-07-23T02:07:59;18.10;99.90
21238;DHT22;10777;50.828;3.264;2022-07-23T02:10:26;18.10;99.90
21238;DHT22;10777;50.828;3.264;2022-07-23T02:12:52;17.80;99.90
21238;DHT22;10777;50.828;3.264;2022-07-23T02:15:18;17.80;99.90
21238;DHT22;10777;50.828;3.264;2022-07-23T02:17:44;17.70;99.90
21238;DHT22;10777;50.828;3.264;2022-07-23T02:20:10;17.90;99.90
21238;DHT22;10777;50.828;3.264;2022-07-23T02:22:37;18.20;99.90
21238;DHT22;10777;50.828;3.264;2022-07-23T02:25:04;18.20;99.90
21238;DHT22;10777;50.828;3.264;2022-07-23T02:27:30;18.10;99.90
21238;DHT22;10777;50.828;3.264;2022-07-23T02:29:56;18.30;99.90
21238;DHT22;10777;50.828;3.264;2022-07-23T02:32:23;18.40;99.90
21238;DHT22;10777;50.828;3.264;2022-07-23T02:34:48;18.70;99.90
21238;DHT22;10777;50.828;3.264;2022-07-23T02:37:14;18.70;99.90
21238;DHT22;10777;50.828;3.264;2022-07-23T02:39:40;18.70;99.90
21238;DHT22;10777;50.828;3.264;2022-07-23T02:42:06;18.80;99.90
21238;DHT22;10777;50.828;3.264;2022-07-23T02:44:31;18.60;99.90
21238;DHT22;10777;50.828;3.264;2022-07-23T02:46:57;18.60;99.90
21238;DHT22;10777;50.828;3.264;2022-07-23T02:49:23;18.70;99.90
21238;DHT22;10777;50.828;3.264;2022-07-23T02:51:49;18.80;99.90
21238;DHT22;10777;50.828;3.264;2022-07-23T02:54:14;18.90;99.90
21238;DHT22;10777;50.828;3.264;2022-07-23T02:56:40;18.80;99.90
21238;DHT22;10777;50.828;3.264;2022-07-23T02:59:05;18.70;99.90
21238;DHT22;10777;50.828;3.264;2022-07-23T03:01:31;18.50;99.90
21238;DHT22;10777;50.828;3.264;2022-07-23T03:03:57;18.60;99.90
21238;DHT22;10777;50.828;3.264;2022-07-23T03:06:23;18.50;99.90
21238;DHT22;10777;50.828;3.264;2022-07-23T03:08:48;18.50;99.90
21238;DHT22;10777;50.828;3.264;2022-07-23T03:11:14;18.50;99.90
21238;DHT22;10777;50.828;3.264;2022-07-23T03:13:40;18.40;99.90
21238;DHT22;10777;50.828;3.264;2022-07-23T03:16:07;18.30;99.90
21238;DHT22;10777;50.828;3.264;2022-07-23T03:18:33;18.40;99.90
21238;DHT22;10777;50.828;3.264;2022-07-23T03:20:59;18.30;99.90
21238;DHT22;10777;50.828;3.264;2022-07-23T03:23:25;18.30;99.90
21238;DHT22;10777;50.828;3.264;2022-07-23T03:25:51;17.90;99.90
21238;DHT22;10777;50.828;3.264;2022-07-23T03:28:17;17.80;99.90
21238;DHT22;10777;50.828;3.264;2022-07-23T03:30:44;18.00;99.90
21238;DHT22;10777;50.828;3.264;2022-07-23T03:33:14;18.10;99.90
21238;DHT22;10777;50.828;3.264;2022-07-23T03:35:40;18.30;99.90
21238;DHT22;10777;50.828;3.264;2022-07-23T03:38:05;18.40;99.90
21238;DHT22;10777;50.828;3.264;2022-07-23T03:40:31;18.50;99.90
21238;DHT22;10777;50.828;3.264;2022-07-23T03:42:57;18.60;99.90
21238;DHT22;10777;50.828;3.264;2022-07-23T03:45:23;18.60;99.90
21238;DHT22;10777;50.828;3.264;2022-07-23T03:47:48;18.40;99.90
21238;DHT22;10777;50.828;3.264;2022-07-23T03:50:14;18.50;99.90
21238;DHT22;10777;50.828;3.264;2022-07-23T03:52:40;18.30;99.90
21238;DHT22;10777;50.828;3.264;2022-07-23T03:55:06;18.20;99.90
21238;DHT22;10777;50.828;3.264;2022-07-23T03:57:32;18.40;99.90
21238;DHT22;10777;50.828;3.264;2022-07-23T03:59:58;18.50;99.90
21238;DHT22;10777;50.828;3.264;2022-07-23T04:02:24;18.40;99.90
21238;DHT22;10777;50.828;3.264;2022-07-23T04:04:51;18.60;99.90
21238;DHT22;10777;50.828;3.264;2022-07-23T04:07:16;18.80;99.90
21238;DHT22;10777;50.828;3.264;2022-07-23T04:09:43;18.80;99.90
21238;DHT22;10777;50.828;3.264;2022-07-23T04:12:09;18.80;99.90
21238;DHT22;10777;50.828;3.264;2022-07-23T04:14:35;18.60;99.90
21238;DHT22;10777;50.828;3.264;2022-07-23T04:17:01;18.70;99.90
21238;DHT22;10777;50.828;3.264;2022-07-23T04:19:27;18.80;99.90
21238;DHT22;10777;50.828;3.264;2022-07-23T04:21:53;18.60;99.90
21238;DHT22;10777;50.828;3.264;2022-07-23T04:24:18;18.60;99.90
21238;DHT22;10777;50.828;3.264;2022-07-23T04:26:44;18.70;99.90
21238;DHT22;10777;50.828;3.264;2022-07-23T04:29:10;18.70;99.90
21238;DHT22;10777;50.828;3.264;2022-07-23T04:31:36;18.50;99.90
21238;DHT22;10777;50.828;3.264;2022-07-23T04:34:02;18.70;99.90
21238;DHT22;10777;50.828;3.264;2022-07-23T04:36:28;18.30;99.90
21238;DHT22;10777;50.828;3.264;2022-07-23T04:38:54;18.10;99.90
21238;DHT22;10777;50.828;3.264;2022-07-23T04:41:20;17.90;99.90
21238;DHT22;10777;50.828;3.264;2022-07-23T04:43:46;18.00;99.90
21238;DHT22;10777;50.828;3.264;2022-07-23T04:46:12;18.00;99.90
21238;DHT22;10777;50.828;3.264;2022-07-23T04:48:37;18.20;99.90
21238;DHT22;10777;50.828;3.264;2022-07-23T04:51:03;18.10;99.90
21238;DHT22;10777;50.828;3.264;2022-07-23T04:53:29;18.20;99.90
21238;DHT22;10777;50.828;3.264;2022-07-23T04:55:55;18.40;99.90
21238;DHT22;10777;50.828;3.264;2022-07-23T04:58:21;18.00;99.90
21238;DHT22;10777;50.828;3.264;2022-07-23T05:00:47;17.80;99.90
21238;DHT22;10777;50.828;3.264;2022-07-23T05:03:12;17.90;99.90
21238;DHT22;10777;50.828;3.264;2022-07-23T05:05:38;18.10;99.90
21238;DHT22;10777;50.828;3.264;2022-07-23T05:08:04;18.60;99.90
21238;DHT22;10777;50.828;3.264;2022-07-23T05:10:30;18.60;99.90
21238;DHT22;10777;50.828;3.264;2022-07-23T05:12:55;18.60;99.90
21238;DHT22;10777;50.828;3.264;2022-07-23T05:15:21;18.70;99.90
21238;DHT22;10777;50.828;3.264;2022-07-23T05:17:49;18.70;99.90
21238;DHT22;10777;50.828;3.264;2022-07-23T05:20:14;18.90;99.90
21238;DHT22;10777;50.828;3.264;2022-07-23T05:22:40;19.10;99.90
21238;DHT22;10777;50.828;3.264;2022-07-23T05:25:06;19.50;99.90
21238;DHT22;10777;50.828;3.264;2022-07-23T05:27:33;19.60;99.90
21238;DHT22;10777;50.828;3.264;2022-07-23T05:29:59;19.00;99.90
21238;DHT22;10777;50.828;3.264;2022-07-23T05:32:26;18.40;99.90
21238;DHT22;10777;50.828;3.264;2022-07-23T05:34:52;18.40;99.90
21238;DHT22;10777;50.828;3.264;2022-07-23T05:37:18;18.40;99.90
21238;DHT22;10777;50.828;3.264;2022-07-23T05:39:44;18.50;99.90
21238;DHT22;10777;50.828;3.264;2022-07-23T05:42:09;18.80;99.90
21238;DHT22;10777;50.828;3.264;2022-07-23T05:44:35;19.00;99.90
21238;DHT22;10777;50.828;3.264;2022-07-23T05:47:02;19.40;99.90
21238;DHT22;10777;50.828;3.264;2022-07-23T05:49:27;20.00;99.90
21238;DHT22;10777;50.828;3.264;2022-07-23T05:51:53;20.00;99.90
21238;DHT22;10777;50.828;3.264;2022-07-23T05:54:19;20.10;99.90
21238;DHT22;10777;50.828;3.264;2022-07-23T05:56:44;20.30;99.90
21238;DHT22;10777;50.828;3.264;2022-07-23T05:59:10;20.40;99.90
21238;DHT22;10777;50.828;3.264;2022-07-23T06:01:38;20.30;99.90
21238;DHT22;10777;50.828;3.264;2022-07-23T06:04:04;20.30;99.90
21238;DHT22;10777;50.828;3.264;2022-07-23T06:06:29;20.30;99.90
21238;DHT22;10777;50.828;3.264;2022-07-23T06:08:55;20.20;99.90
21238;DHT22;10777;50.828;3.264;2022-07-23T06:11:21;20.00;99.90
21238;DHT22;10777;50.828;3.264;2022-07-23T06:13:46;20.10;99.90
21238;DHT22;10777;50.828;3.264;2022-07-23T06:16:12;20.50;99.90
21238;DHT22;10777;50.828;3.264;2022-07-23T06:18:38;20.70;99.90
21238;DHT22;10777;50.828;3.264;2022-07-23T06:21:03;20.60;99.90
21238;DHT22;10777;50.828;3.264;2022-07-23T06:23:29;20.90;99.90
21238;DHT22;10777;50.828;3.264;2022-07-23T06:25:54;21.20;99.90
21238;DHT22;10777;50.828;3.264;2022-07-23T06:28:20;21.40;99.90
21238;DHT22;10777;50.828;3.264;2022-07-23T06:30:46;21.20;99.90
21238;DHT22;10777;50.828;3.264;2022-07-23T06:33:11;21.30;99.90
21238;DHT22;10777;50.828;3.264;2022-07-23T06:35:37;21.40;99.90
21238;DHT22;10777;50.828;3.264;2022-07-23T06:38:03;21.70;99.90
21238;DHT22;10777;50.828;3.264;2022-07-23T06:40:29;21.80;99.90
21238;DHT22;10777;50.828;3.264;2022-07-23T06:42:55;21.90;99.90
21238;DHT22;10777;50.828;3.264;2022-07-23T06:45:20;22.00;99.90
21238;DHT22;10777;50.828;3.264;2022-07-23T06:47:46;21.80;99.90
21238;DHT22;10777;50.828;3.264;2022-07-23T06:50:12;21.70;99.90
21238;DHT22;10777;50.828;3.264;2022-07-23T06:52:37;21.90;99.90
21238;DHT22;10777;50.828;3.264;2022-07-23T06:55:03;21.90;99.90
21238;DHT22;10777;50.828;3.264;2022-07-23T06:57:29;21.80;99.90
21238;DHT22;10777;50.828;3.264;2022-07-23T06:59:55;21.80;99.90
21238;DHT22;10777;50.828;3.264;2022-07-23T07:02:20;22.00;99.90
21238;DHT22;10777;50.828;3.264;2022-07-23T07:04:46;21.90;99.90
21238;DHT22;10777;50.828;3.264;2022-07-23T07:07:12;21.80;99.90
21238;DHT22;10777;50.828;3.264;2022-07-23T07:09:38;21.80;99.90
21238;DHT22;10777;50.828;3.264;2022-07-23T07:12:04;21.90;99.90
21238;DHT22;10777;50.828;3.264;2022-07-23T07:14:29;22.30;99.90
21238;DHT22;10777;50.828;3.264;2022-07-23T07:16:55;21.90;99.90
21238;DHT22;10777;50.828;3.264;2022-07-23T07:19:21;21.80;99.90
21238;DHT22;10777;50.828;3.264;2022-07-23T07:21:47;21.50;99.90
21238;DHT22;10777;50.828;3.264;2022-07-23T07:24:12;21.40;99.90
21238;DHT22;10777;50.828;3.264;2022-07-23T07:26:38;21.50;99.90
21238;DHT22;10777;50.828;3.264;2022-07-23T07:29:05;21.40;99.90
21238;DHT22;10777;50.828;3.264;2022-07-23T07:31:31;21.60;99.90
21238;DHT22;10777;50.828;3.264;2022-07-23T07:33:57;21.60;99.90
21238;DHT22;10777;50.828;3.264;2022-07-23T07:36:23;21.70;99.90
21238;DHT22;10777;50.828;3.264;2022-07-23T07:38:49;21.80;99.90
21238;DHT22;10777;50.828;3.264;2022-07-23T07:41:14;21.60;99.90
21238;DHT22;10777;50.828;3.264;2022-07-23T07:43:41;21.80;99.90
21238;DHT22;10777;50.828;3.264;2022-07-23T07:46:06;22.00;99.90
21238;DHT22;10777;50.828;3.264;2022-07-23T07:48:36;22.20;99.90
21238;DHT22;10777;50.828;3.264;2022-07-23T07:51:03;22.40;99.90
21238;DHT22;10777;50.828;3.264;2022-07-23T07:53:29;22.50;99.90
21238;DHT22;10777;50.828;3.264;2022-07-23T07:55:54;22.50;99.90
21238;DHT22;10777;50.828;3.264;2022-07-23T07:58:21;22.50;99.90
21238;DHT22;10777;50.828;3.264;2022-07-23T08:00:47;22.40;99.90
21238;DHT22;10777;50.828;3.264;2022-07-23T08:03:12;22.40;99.90
21238;DHT22;10777;50.828;3.264;2022-07-23T08:05:38;22.40;99.90
21238;DHT22;10777;50.828;3.264;2022-07-23T08:08:05;22.50;99.90
21238;DHT22;10777;50.828;3.264;2022-07-23T08:10:31;22.50;99.90
21238;DHT22;10777;50.828;3.264;2022-07-23T08:12:58;22.80;99.90
21238;DHT22;10777;50.828;3.264;2022-07-23T08:15:26;22.90;99.90
21238;DHT22;10777;50.828;3.264;2022-07-23T08:17:53;22.80;99.90
21238;DHT22;10777;50.828;3.264;2022-07-23T08:20:20;22.70;99.90
21238;DHT22;10777;50.828;3.264;2022-07-23T08:22:51;22.90;99.90
21238;DHT22;10777;50.828;3.264;2022-07-23T08:25:23;22.80;99.90
21238;DHT22;10777;50.828;3.264;2022-07-23T08:27:50;22.70;99.90
21238;DHT22;10777;50.828;3.264;2022-07-23T08:30:16;22.70;99.90
21238;DHT22;10777;50.828;3.264;2022-07-23T08:32:58;23.00;99.90
21238;DHT22;10777;50.828;3.264;2022-07-23T08:35:30;23.00;99.90
21238;DHT22;10777;50.828;3.264;2022-07-23T08:37:58;23.00;99.90
21238;DHT22;10777;50.828;3.264;2022-07-23T08:40:27;23.10;99.90
21238;DHT22;10777;50.828;3.264;2022-07-23T08:42:53;23.30;99.90
21238;DHT22;10777;50.828;3.264;2022-07-23T08:45:21;23.50;99.90
21238;DHT22;10777;50.828;3.264;2022-07-23T08:47:49;23.30;99.90
21238;DHT22;10777;50.828;3.264;2022-07-23T08:50:15;23.10;99.90
21238;DHT22;10777;50.828;3.264;2022-07-23T08:52:41;23.30;99.90
21238;DHT22;10777;50.828;3.264;2022-07-23T08:55:07;23.50;99.90
21238;DHT22;10777;50.828;3.264;2022-07-23T08:57:33;23.60;99.90
21238;DHT22;10777;50.828;3.264;2022-07-23T08:59:59;23.50;99.90
21238;DHT22;10777;50.828;3.264;2022-07-23T09:02:25;23.80;99.90
21238;DHT22;10777;50.828;3.264;2022-07-23T09:04:51;23.90;99.90
21238;DHT22;10777;50.828;3.264;2022-07-23T09:07:17;24.00;99.90
21238;DHT22;10777;50.828;3.264;2022-07-23T09:09:43;24.00;99.90
21238;DHT22;10777;50.828;3.264;2022-07-23T09:12:10;24.00;99.90
21238;DHT22;10777;50.828;3.264;2022-07-23T09:14:44;24.00;99.90
21238;DHT22;10777;50.828;3.264;2022-07-23T09:17:16;24.30;99.90
21238;DHT22;10777;50.828;3.264;2022-07-23T09:19:43;24.40;99.90
21238;DHT22;10777;50.828;3.264;2022-07-23T09:22:27;24.10;99.90
21238;DHT22;10777;50.828;3.264;2022-07-23T09:25:14;24.40;99.90
21238;DHT22;10777;50.828;3.264;2022-07-23T09:27:59;24.20;99.90
21238;DHT22;10777;50.828;3.264;2022-07-23T09:30:30;24.20;99.90
21238;DHT22;10777;50.828;3.264;2022-07-23T09:33:13;24.50;99.90
21238;DHT22;10777;50.828;3.264;2022-07-23T09:35:48;24.90;99.90
21238;DHT22;10777;50.828;3.264;2022-07-23T09:38:23;25.00;99.90
21238;DHT22;10777;50.828;3.264;2022-07-23T09:41:09;25.20;99.90
21238;DHT22;10777;50.828;3.264;2022-07-23T09:43:35;25.20;99.90
21238;DHT22;10777;50.828;3.264;2022-07-23T09:46:22;25.10;99.90
21238;DHT22;10777;50.828;3.264;2022-07-23T09:48:50;25.00;99.90
21238;DHT22;10777;50.828;3.264;2022-07-23T09:51:19;24.70;99.90
21238;DHT22;10777;50.828;3.264;2022-07-23T09:53:51;24.70;99.90
21238;DHT22;10777;50.828;3.264;2022-07-23T09:56:17;24.40;99.90
21238;DHT22;10777;50.828;3.264;2022-07-23T09:58:44;24.60;99.90
21238;DHT22;10777;50.828;3.264;2022-07-23T10:01:20;24.90;99.90
21238;DHT22;10777;50.828;3.264;2022-07-23T10:03:52;25.20;99.90
21238;DHT22;10777;50.828;3.264;2022-07-23T10:06:18;25.40;99.90
21238;DHT22;10777;50.828;3.264;2022-07-23T10:08:47;25.50;99.90
21238;DHT22;10777;50.828;3.264;2022-07-23T10:11:13;25.50;99.90
21238;DHT22;10777;50.828;3.264;2022-07-23T10:13:40;25.50;99.90
21238;DHT22;10777;50.828;3.264;2022-07-23T10:16:23;25.50;99.90
21238;DHT22;10777;50.828;3.264;2022-07-23T10:18:49;25.60;99.90
21238;DHT22;10777;50.828;3.264;2022-07-23T10:21:42;25.60;99.90
21238;DHT22;10777;50.828;3.264;2022-07-23T10:30:38;25.70;99.90
21238;DHT22;10777;50.828;3.264;2022-07-23T10:33:30;25.60;99.90
21238;DHT22;10777;50.828;3.264;2022-07-23T10:36:11;25.70;99.90
21238;DHT22;10777;50.828;3.264;2022-07-23T10:38:56;25.80;99.90
21238;DHT22;10777;50.828;3.264;2022-07-23T10:41:40;25.60;99.90
21238;DHT22;10777;50.828;3.264;2022-07-23T10:44:09;25.40;99.90
21238;DHT22;10777;50.828;3.264;2022-07-23T10:46:35;25.40;99.90
21238;DHT22;10777;50.828;3.264;2022-07-23T10:49:30;25.50;99.90
21238;DHT22;10777;50.828;3.264;2022-07-23T10:52:17;25.40;99.90
21238;DHT22;10777;50.828;3.264;2022-07-23T10:54:49;25.50;99.90
21238;DHT22;10777;50.828;3.264;2022-07-23T10:57:18;25.40;99.90
21238;DHT22;10777;50.828;3.264;2022-07-23T11:00:12;25.50;99.90
21238;DHT22;10777;50.828;3.264;2022-07-23T11:02:40;25.80;99.90
21238;DHT22;10777;50.828;3.264;2022-07-23T11:05:08;25.90;99.90
21238;DHT22;10777;50.828;3.264;2022-07-23T11:07:35;26.10;99.90
21238;DHT22;10777;50.828;3.264;2022-07-23T11:10:04;26.00;99.90
21238;DHT22;10777;50.828;3.264;2022-07-23T11:12:32;25.90;99.90
21238;DHT22;10777;50.828;3.264;2022-07-23T11:15:14;25.90;99.90
21238;DHT22;10777;50.828;3.264;2022-07-23T11:18:00;26.30;99.90
21238;DHT22;10777;50.828;3.264;2022-07-23T11:20:26;26.40;99.90
21238;DHT22;10777;50.828;3.264;2022-07-23T11:22:56;26.50;99.90
21238;DHT22;10777;50.828;3.264;2022-07-23T11:25:33;26.70;99.90
21238;DHT22;10777;50.828;3.264;2022-07-23T11:28:17;26.80;99.90
21238;DHT22;10777;50.828;3.264;2022-07-23T11:30:46;26.60;99.90
21238;DHT22;10777;50.828;3.264;2022-07-23T11:33:20;26.70;99.90
21238;DHT22;10777;50.828;3.264;2022-07-23T11:35:50;26.90;99.90
21238;DHT22;10777;50.828;3.264;2022-07-23T11:38:25;26.90;99.90
21238;DHT22;10777;50.828;3.264;2022-07-23T11:40:54;27.10;99.90
21238;DHT22;10777;50.828;3.264;2022-07-23T11:43:21;27.50;99.90
21238;DHT22;10777;50.828;3.264;2022-07-23T11:45:49;27.40;99.90
21238;DHT22;10777;50.828;3.264;2022-07-23T11:48:25;27.40;99.90
21238;DHT22;10777;50.828;3.264;2022-07-23T11:50:52;27.70;99.90
21238;DHT22;10777;50.828;3.264;2022-07-23T11:53:24;27.50;99.90
21238;DHT22;10777;50.828;3.264;2022-07-23T11:55:51;27.60;99.90
21238;DHT22;10777;50.828;3.264;2022-07-23T11:58:17;27.50;99.90
21238;DHT22;10777;50.828;3.264;2022-07-23T12:00:43;27.80;99.90
21238;DHT22;10777;50.828;3.264;2022-07-23T12:03:08;28.20;99.90
21238;DHT22;10777;50.828;3.264;2022-07-23T12:05:36;28.30;99.90
21238;DHT22;10777;50.828;3.264;2022-07-23T12:08:06;27.90;99.90
21238;DHT22;10777;50.828;3.264;2022-07-23T12:10:41;27.40;99.90
21238;DHT22;10777;50.828;3.264;2022-07-23T12:13:12;27.20;99.90
21238;DHT22;10777;50.828;3.264;2022-07-23T12:15:40;27.40;99.90
21238;DHT22;10777;50.828;3.264;2022-07-23T12:18:09;27.90;99.90
21238;DHT22;10777;50.828;3.264;2022-07-23T12:20:40;28.10;99.90
21238;DHT22;10777;50.828;3.264;2022-07-23T12:23:09;28.00;99.90
21238;DHT22;10777;50.828;3.264;2022-07-23T12:25:38;28.00;99.90
21238;DHT22;10777;50.828;3.264;2022-07-23T12:28:07;28.20;99.90
21238;DHT22;10777;50.828;3.264;2022-07-23T12:33:40;28.40;99.90
21238;DHT22;10777;50.828;3.264;2022-07-23T12:36:08;28.70;99.90
21238;DHT22;10777;50.828;3.264;2022-07-23T12:38:41;28.80;99.90
21238;DHT22;10777;50.828;3.264;2022-07-23T12:41:07;29.10;99.90
21238;DHT22;10777;50.828;3.264;2022-07-23T12:43:38;29.30;99.90
21238;DHT22;10777;50.828;3.264;2022-07-23T12:46:10;29.50;99.90
21238;DHT22;10777;50.828;3.264;2022-07-23T12:48:39;28.90;99.90
21238;DHT22;10777;50.828;3.264;2022-07-23T12:51:19;28.60;99.90
21238;DHT22;10777;50.828;3.264;2022-07-23T12:53:47;28.60;99.90
21238;DHT22;10777;50.828;3.264;2022-07-23T12:56:16;29.00;99.90
21238;DHT22;10777;50.828;3.264;2022-07-23T12:58:46;29.10;99.90
21238;DHT22;10777;50.828;3.264;2022-07-23T13:01:29;29.60;99.90
21238;DHT22;10777;50.828;3.264;2022-07-23T13:04:17;29.80;99.90
21238;DHT22;10777;50.828;3.264;2022-07-23T13:06:48;29.50;99.90
21238;DHT22;10777;50.828;3.264;2022-07-23T13:09:18;29.40;99.90
21238;DHT22;10777;50.828;3.264;2022-07-23T13:11:46;29.40;99.90
21238;DHT22;10777;50.828;3.264;2022-07-23T13:14:12;29.60;99.90
21238;DHT22;10777;50.828;3.264;2022-07-23T13:16:38;29.70;99.90
21238;DHT22;10777;50.828;3.264;2022-07-23T13:19:04;29.70;99.90
21238;DHT22;10777;50.828;3.264;2022-07-23T13:21:30;29.70;99.90
21238;DHT22;10777;50.828;3.264;2022-07-23T13:23:57;29.80;99.90
21238;DHT22;10777;50.828;3.264;2022-07-23T13:26:22;29.90;99.90
21238;DHT22;10777;50.828;3.264;2022-07-23T13:28:48;29.60;99.90
21238;DHT22;10777;50.828;3.264;2022-07-23T13:31:16;29.70;99.90
21238;DHT22;10777;50.828;3.264;2022-07-23T13:33:42;29.50;99.90
21238;DHT22;10777;50.828;3.264;2022-07-23T13:36:08;29.60;99.90
21238;DHT22;10777;50.828;3.264;2022-07-23T13:38:34;29.50;99.90
21238;DHT22;10777;50.828;3.264;2022-07-23T13:41:00;29.30;99.90
21238;DHT22;10777;50.828;3.264;2022-07-23T13:43:26;29.70;99.90
21238;DHT22;10777;50.828;3.264;2022-07-23T13:45:53;30.10;99.90
21238;DHT22;10777;50.828;3.264;2022-07-23T13:48:19;30.30;99.90
21238;DHT22;10777;50.828;3.264;2022-07-23T13:50:46;31.10;99.90
21238;DHT22;10777;50.828;3.264;2022-07-23T13:53:16;31.60;99.90
21238;DHT22;10777;50.828;3.264;2022-07-23T13:55:43;30.90;99.90
21238;DHT22;10777;50.828;3.264;2022-07-23T13:58:10;30.60;99.90
21238;DHT22;10777;50.828;3.264;2022-07-23T14:00:39;30.80;99.90
21238;DHT22;10777;50.828;3.264;2022-07-23T14:03:05;31.90;99.90
21238;DHT22;10777;50.828;3.264;2022-07-23T14:05:31;33.00;99.70
21238;DHT22;10777;50.828;3.264;2022-07-23T14:07:57;33.90;97.50
21238;DHT22;10777;50.828;3.264;2022-07-23T14:10:23;34.20;96.20
21238;DHT22;10777;50.828;3.264;2022-07-23T14:12:50;34.90;95.40
21238;DHT22;10777;50.828;3.264;2022-07-23T14:15:17;35.30;93.60
21238;DHT22;10777;50.828;3.264;2022-07-23T14:17:44;35.20;92.40
21238;DHT22;10777;50.828;3.264;2022-07-23T14:20:12;35.20;92.10
21238;DHT22;10777;50.828;3.264;2022-07-23T14:22:38;35.00;91.50
21238;DHT22;10777;50.828;3.264;2022-07-23T14:25:06;34.10;91.90
21238;DHT22;10777;50.828;3.264;2022-07-23T14:27:32;33.70;91.80
21238;DHT22;10777;50.828;3.264;2022-07-23T14:29:57;32.80;93.00
21238;DHT22;10777;50.828;3.264;2022-07-23T14:32:23;32.80;93.20
21238;DHT22;10777;50.828;3.264;2022-07-23T14:34:49;32.90;93.00
21238;DHT22;10777;50.828;3.264;2022-07-23T14:37:16;33.20;93.10
21238;DHT22;10777;50.828;3.264;2022-07-23T14:39:42;34.10;92.20
21238;DHT22;10777;50.828;3.264;2022-07-23T14:42:09;35.40;91.20
21238;DHT22;10777;50.828;3.264;2022-07-23T14:44:35;35.80;89.80
21238;DHT22;10777;50.828;3.264;2022-07-23T14:47:03;36.30;86.10
21238;DHT22;10777;50.828;3.264;2022-07-23T14:49:30;35.50;84.20
21238;DHT22;10777;50.828;3.264;2022-07-23T14:51:56;35.20;85.80
21238;DHT22;10777;50.828;3.264;2022-07-23T14:54:22;35.80;85.60
21238;DHT22;10777;50.828;3.264;2022-07-23T14:56:47;36.10;84.30
21238;DHT22;10777;50.828;3.264;2022-07-23T14:59:13;35.80;83.20
21238;DHT22;10777;50.828;3.264;2022-07-23T15:01:40;35.20;84.10
21238;DHT22;10777;50.828;3.264;2022-07-23T15:04:06;35.00;84.00
21238;DHT22;10777;50.828;3.264;2022-07-23T15:06:32;35.30;84.90
21238;DHT22;10777;50.828;3.264;2022-07-23T15:08:59;36.60;82.60
21238;DHT22;10777;50.828;3.264;2022-07-23T15:11:26;37.00;80.10
21238;DHT22;10777;50.828;3.264;2022-07-23T15:13:52;37.60;78.80
21238;DHT22;10777;50.828;3.264;2022-07-23T15:16:18;37.50;78.00
21238;DHT22;10777;50.828;3.264;2022-07-23T15:18:44;36.60;77.10
21238;DHT22;10777;50.828;3.264;2022-07-23T15:21:10;35.80;79.70
21238;DHT22;10777;50.828;3.264;2022-07-23T15:23:36;36.20;79.10
21238;DHT22;10777;50.828;3.264;2022-07-23T15:26:05;36.30;79.10
21238;DHT22;10777;50.828;3.264;2022-07-23T15:28:31;36.30;77.50
21238;DHT22;10777;50.828;3.264;2022-07-23T15:30:57;36.50;78.40
21238;DHT22;10777;50.828;3.264;2022-07-23T15:33:22;37.90;76.30
21238;DHT22;10777;50.828;3.264;2022-07-23T15:35:48;38.70;74.70
21238;DHT22;10777;50.828;3.264;2022-07-23T15:38:14;39.30;72.70
21238;DHT22;10777;50.828;3.264;2022-07-23T15:40:40;39.30;71.80
21238;DHT22;10777;50.828;3.264;2022-07-23T15:43:06;39.00;70.70